Hovedside
METAR-TAF:

METAR-TAF

Lufthavner :

Ørsta-Volda, Norge

Ørsta/Volda lufthamn

breddegrad: 62-11N, lengdegrad: 006-04E, høyde over havet: 7 m

Gjeldene værobservasjon

Denne rapporten ble laget for 51 minutter siden, klokken 19:50 UTC
Vind 2 kt fra skiftende retning
Temperatur 7°C
Luftfuktighet 93%
Trykk 1025 hPa
Sikt 10 km eller mer
Få skyer i en høyde av 1200 ft
Brutte skyer i en høyde av 2400 ft
regnbyger i nærheten

METAR: ENOV 261950Z VRB02KT 9999 VCSH FEW012 BKN024 07/06 Q1025 RMK WIND 2175FT 15013KT

Tid: 22:41 (20:41 UTC)


TAF: fraværende

Værobservasjoner og værvarsel for over 4000 flyplasser (METAR- og TAF-rapporter).

Tilgjengelige stasjoner er representert av de røde og gule prikkene på kartet.

Hold musepekeren over prikken for å se navnet på stasjonen.

Klikk så for å se værobservasjoner og -varsler.

For å forandre kartet kan du klikke på den grønne knappen med svart kryss for å zoome inn, på den grønne knappen med strek for å zoome ut, eller på de grønne pilene for å se tilstøtende kart.


METAR-TAF: